sensor_id;sensor_type;location;lat;lon;timestamp;temperature;humidity
8862;DHT22;4799;50.996;4.754;2024-02-21T00:02:11;9.80;99.90
8862;DHT22;4799;50.996;4.754;2024-02-21T00:04:37;9.80;99.90
8862;DHT22;4799;50.996;4.754;2024-02-21T00:07:04;9.80;99.90
8862;DHT22;4799;50.996;4.754;2024-02-21T00:09:30;9.80;99.90
8862;DHT22;4799;50.996;4.754;2024-02-21T00:11:56;9.80;99.90
8862;DHT22;4799;50.996;4.754;2024-02-21T00:14:21;9.80;99.90
8862;DHT22;4799;50.996;4.754;2024-02-21T00:16:47;9.80;99.90
8862;DHT22;4799;50.996;4.754;2024-02-21T00:19:13;9.80;99.90
8862;DHT22;4799;50.996;4.754;2024-02-21T00:21:40;9.80;99.90
8862;DHT22;4799;50.996;4.754;2024-02-21T00:24:06;9.80;99.90
8862;DHT22;4799;50.996;4.754;2024-02-21T00:26:32;9.80;99.90
8862;DHT22;4799;50.996;4.754;2024-02-21T00:28:57;9.80;99.90
8862;DHT22;4799;50.996;4.754;2024-02-21T00:31:23;9.70;99.90
8862;DHT22;4799;50.996;4.754;2024-02-21T00:33:49;9.80;99.90
8862;DHT22;4799;50.996;4.754;2024-02-21T00:36:16;9.70;99.90
8862;DHT22;4799;50.996;4.754;2024-02-21T00:38:42;9.80;99.90
8862;DHT22;4799;50.996;4.754;2024-02-21T00:41:07;9.80;99.90
8862;DHT22;4799;50.996;4.754;2024-02-21T00:43:33;9.80;99.90
8862;DHT22;4799;50.996;4.754;2024-02-21T00:45:59;9.80;99.90
8862;DHT22;4799;50.996;4.754;2024-02-21T00:48:25;9.70;99.90
8862;DHT22;4799;50.996;4.754;2024-02-21T00:50:50;9.70;99.90
8862;DHT22;4799;50.996;4.754;2024-02-21T00:53:17;9.80;99.90
8862;DHT22;4799;50.996;4.754;2024-02-21T00:55:43;9.70;99.90
8862;DHT22;4799;50.996;4.754;2024-02-21T00:58:09;9.70;99.90
8862;DHT22;4799;50.996;4.754;2024-02-21T01:00:34;9.80;99.90
8862;DHT22;4799;50.996;4.754;2024-02-21T01:03:00;9.70;99.90
8862;DHT22;4799;50.996;4.754;2024-02-21T01:05:26;9.70;99.90
8862;DHT22;4799;50.996;4.754;2024-02-21T01:07:53;9.70;99.90
8862;DHT22;4799;50.996;4.754;2024-02-21T01:10:19;9.70;99.90
8862;DHT22;4799;50.996;4.754;2024-02-21T01:12:45;9.70;99.90
8862;DHT22;4799;50.996;4.754;2024-02-21T01:15:10;9.70;99.90
8862;DHT22;4799;50.996;4.754;2024-02-21T01:17:37;9.70;99.90
8862;DHT22;4799;50.996;4.754;2024-02-21T01:20:03;9.70;99.90
8862;DHT22;4799;50.996;4.754;2024-02-21T01:22:31;9.70;99.90
8862;DHT22;4799;50.996;4.754;2024-02-21T01:24:56;9.70;99.90
8862;DHT22;4799;50.996;4.754;2024-02-21T01:27:22;9.70;99.90
8862;DHT22;4799;50.996;4.754;2024-02-21T01:29:48;9.70;99.90
8862;DHT22;4799;50.996;4.754;2024-02-21T01:32:15;9.70;99.90
8862;DHT22;4799;50.996;4.754;2024-02-21T01:34:41;9.70;99.90
8862;DHT22;4799;50.996;4.754;2024-02-21T01:37:07;9.70;99.90
8862;DHT22;4799;50.996;4.754;2024-02-21T01:39:33;9.70;99.90
8862;DHT22;4799;50.996;4.754;2024-02-21T01:41:59;9.70;99.90
8862;DHT22;4799;50.996;4.754;2024-02-21T01:44:25;9.70;99.90
8862;DHT22;4799;50.996;4.754;2024-02-21T01:46:54;9.70;99.90
8862;DHT22;4799;50.996;4.754;2024-02-21T01:49:21;9.60;99.90
8862;DHT22;4799;50.996;4.754;2024-02-21T01:51:47;9.60;99.90
8862;DHT22;4799;50.996;4.754;2024-02-21T01:54:15;9.60;99.90
8862;DHT22;4799;50.996;4.754;2024-02-21T01:56:42;9.60;99.90
8862;DHT22;4799;50.996;4.754;2024-02-21T01:59:08;9.60;99.90
8862;DHT22;4799;50.996;4.754;2024-02-21T02:01:33;9.60;99.90
8862;DHT22;4799;50.996;4.754;2024-02-21T02:03:59;9.60;99.90
8862;DHT22;4799;50.996;4.754;2024-02-21T02:06:25;9.50;99.90
8862;DHT22;4799;50.996;4.754;2024-02-21T02:08:51;9.50;99.90
8862;DHT22;4799;50.996;4.754;2024-02-21T02:11:17;9.50;99.90
8862;DHT22;4799;50.996;4.754;2024-02-21T02:13:42;9.50;99.90
8862;DHT22;4799;50.996;4.754;2024-02-21T02:16:08;9.50;99.90
8862;DHT22;4799;50.996;4.754;2024-02-21T02:18:34;9.50;99.90
8862;DHT22;4799;50.996;4.754;2024-02-21T02:20:59;9.50;99.90
8862;DHT22;4799;50.996;4.754;2024-02-21T02:23:26;9.50;99.90
8862;DHT22;4799;50.996;4.754;2024-02-21T02:25:52;9.50;99.90
8862;DHT22;4799;50.996;4.754;2024-02-21T02:28:18;9.50;99.90
8862;DHT22;4799;50.996;4.754;2024-02-21T02:30:45;9.50;99.90
8862;DHT22;4799;50.996;4.754;2024-02-21T02:33:10;9.50;99.90
8862;DHT22;4799;50.996;4.754;2024-02-21T02:35:36;9.50;99.90
8862;DHT22;4799;50.996;4.754;2024-02-21T02:38:03;9.50;99.90
8862;DHT22;4799;50.996;4.754;2024-02-21T02:40:29;9.50;99.90
8862;DHT22;4799;50.996;4.754;2024-02-21T02:42:55;9.50;99.90
8862;DHT22;4799;50.996;4.754;2024-02-21T02:45:22;9.50;99.90
8862;DHT22;4799;50.996;4.754;2024-02-21T02:47:52;9.50;99.90
8862;DHT22;4799;50.996;4.754;2024-02-21T02:50:20;9.50;99.90
8862;DHT22;4799;50.996;4.754;2024-02-21T02:52:45;9.50;99.90
8862;DHT22;4799;50.996;4.754;2024-02-21T02:55:11;9.40;99.90
8862;DHT22;4799;50.996;4.754;2024-02-21T02:57:38;9.40;99.90
8862;DHT22;4799;50.996;4.754;2024-02-21T03:00:04;9.40;99.90
8862;DHT22;4799;50.996;4.754;2024-02-21T03:02:32;9.40;99.90
8862;DHT22;4799;50.996;4.754;2024-02-21T03:04:57;9.40;99.90
8862;DHT22;4799;50.996;4.754;2024-02-21T03:07:24;9.40;99.90
8862;DHT22;4799;50.996;4.754;2024-02-21T03:09:50;9.40;99.90
8862;DHT22;4799;50.996;4.754;2024-02-21T03:12:16;9.40;99.90
8862;DHT22;4799;50.996;4.754;2024-02-21T03:14:50;9.40;99.90
8862;DHT22;4799;50.996;4.754;2024-02-21T03:17:16;9.40;99.90
8862;DHT22;4799;50.996;4.754;2024-02-21T03:19:42;9.40;99.90
8862;DHT22;4799;50.996;4.754;2024-02-21T03:22:07;9.30;99.90
8862;DHT22;4799;50.996;4.754;2024-02-21T03:24:33;9.30;99.90
8862;DHT22;4799;50.996;4.754;2024-02-21T03:26:59;9.30;99.90
8862;DHT22;4799;50.996;4.754;2024-02-21T03:29:25;9.30;99.90
8862;DHT22;4799;50.996;4.754;2024-02-21T03:31:51;9.20;99.90
8862;DHT22;4799;50.996;4.754;2024-02-21T03:34:16;9.30;99.90
8862;DHT22;4799;50.996;4.754;2024-02-21T03:36:42;9.30;99.90
8862;DHT22;4799;50.996;4.754;2024-02-21T03:39:08;9.20;99.90
8862;DHT22;4799;50.996;4.754;2024-02-21T03:41:35;9.20;99.90
8862;DHT22;4799;50.996;4.754;2024-02-21T03:44:01;9.20;99.90
8862;DHT22;4799;50.996;4.754;2024-02-21T03:46:27;9.20;99.90
8862;DHT22;4799;50.996;4.754;2024-02-21T03:48:53;9.20;99.90
8862;DHT22;4799;50.996;4.754;2024-02-21T03:51:19;9.20;99.90
8862;DHT22;4799;50.996;4.754;2024-02-21T03:53:44;9.20;99.90
8862;DHT22;4799;50.996;4.754;2024-02-21T03:56:10;9.20;99.90
8862;DHT22;4799;50.996;4.754;2024-02-21T03:58:36;9.10;99.90
8862;DHT22;4799;50.996;4.754;2024-02-21T04:01:02;9.10;99.90
8862;DHT22;4799;50.996;4.754;2024-02-21T04:03:29;9.00;99.90
8862;DHT22;4799;50.996;4.754;2024-02-21T04:05:54;9.00;99.90
8862;DHT22;4799;50.996;4.754;2024-02-21T04:08:20;9.00;99.90
8862;DHT22;4799;50.996;4.754;2024-02-21T04:10:47;9.10;99.90
8862;DHT22;4799;50.996;4.754;2024-02-21T04:13:12;9.10;99.90
8862;DHT22;4799;50.996;4.754;2024-02-21T04:15:38;9.10;99.90
8862;DHT22;4799;50.996;4.754;2024-02-21T04:18:04;9.10;99.90
8862;DHT22;4799;50.996;4.754;2024-02-21T04:20:30;9.10;99.90
8862;DHT22;4799;50.996;4.754;2024-02-21T04:22:56;9.10;99.90
8862;DHT22;4799;50.996;4.754;2024-02-21T04:25:21;9.10;99.90
8862;DHT22;4799;50.996;4.754;2024-02-21T04:27:47;9.10;99.90
8862;DHT22;4799;50.996;4.754;2024-02-21T04:30:13;9.10;99.90
8862;DHT22;4799;50.996;4.754;2024-02-21T04:32:39;9.00;99.90
8862;DHT22;4799;50.996;4.754;2024-02-21T04:35:05;9.00;99.90
8862;DHT22;4799;50.996;4.754;2024-02-21T04:37:32;9.00;99.90
8862;DHT22;4799;50.996;4.754;2024-02-21T04:39:58;9.00;99.90
8862;DHT22;4799;50.996;4.754;2024-02-21T04:42:24;9.00;99.90
8862;DHT22;4799;50.996;4.754;2024-02-21T04:44:49;9.00;99.90
8862;DHT22;4799;50.996;4.754;2024-02-21T04:47:15;9.00;99.90
8862;DHT22;4799;50.996;4.754;2024-02-21T04:49:41;9.00;99.90
8862;DHT22;4799;50.996;4.754;2024-02-21T04:52:06;9.00;99.90
8862;DHT22;4799;50.996;4.754;2024-02-21T04:54:32;9.00;99.90
8862;DHT22;4799;50.996;4.754;2024-02-21T04:56:58;9.00;99.90
8862;DHT22;4799;50.996;4.754;2024-02-21T04:59:23;9.00;99.90
8862;DHT22;4799;50.996;4.754;2024-02-21T05:01:49;9.00;99.90
8862;DHT22;4799;50.996;4.754;2024-02-21T05:04:15;9.10;99.90
8862;DHT22;4799;50.996;4.754;2024-02-21T05:06:41;9.10;99.90
8862;DHT22;4799;50.996;4.754;2024-02-21T05:09:08;9.00;99.90
8862;DHT22;4799;50.996;4.754;2024-02-21T05:11:35;9.10;99.90
8862;DHT22;4799;50.996;4.754;2024-02-21T05:14:00;9.10;99.90
8862;DHT22;4799;50.996;4.754;2024-02-21T05:16:26;9.00;99.90
8862;DHT22;4799;50.996;4.754;2024-02-21T05:18:52;9.10;99.90
8862;DHT22;4799;50.996;4.754;2024-02-21T05:21:17;9.10;99.90
8862;DHT22;4799;50.996;4.754;2024-02-21T05:23:43;9.10;99.90
8862;DHT22;4799;50.996;4.754;2024-02-21T05:26:09;9.00;99.90
8862;DHT22;4799;50.996;4.754;2024-02-21T05:28:35;9.10;99.90
8862;DHT22;4799;50.996;4.754;2024-02-21T05:31:00;9.00;99.90
8862;DHT22;4799;50.996;4.754;2024-02-21T05:33:26;9.00;99.90
8862;DHT22;4799;50.996;4.754;2024-02-21T05:35:52;9.00;99.90
8862;DHT22;4799;50.996;4.754;2024-02-21T05:38:18;9.00;99.90
8862;DHT22;4799;50.996;4.754;2024-02-21T05:40:47;8.90;99.90
8862;DHT22;4799;50.996;4.754;2024-02-21T05:43:13;8.90;99.90
8862;DHT22;4799;50.996;4.754;2024-02-21T05:45:39;8.90;99.90
8862;DHT22;4799;50.996;4.754;2024-02-21T05:48:05;8.90;99.90
8862;DHT22;4799;50.996;4.754;2024-02-21T05:50:31;8.90;99.90
8862;DHT22;4799;50.996;4.754;2024-02-21T05:52:57;9.00;99.90
8862;DHT22;4799;50.996;4.754;2024-02-21T05:55:23;9.00;99.90
8862;DHT22;4799;50.996;4.754;2024-02-21T05:57:49;9.00;99.90
8862;DHT22;4799;50.996;4.754;2024-02-21T06:00:15;9.00;99.90
8862;DHT22;4799;50.996;4.754;2024-02-21T06:02:42;9.00;99.90
8862;DHT22;4799;50.996;4.754;2024-02-21T06:05:08;9.00;99.90
8862;DHT22;4799;50.996;4.754;2024-02-21T06:07:34;9.00;99.90
8862;DHT22;4799;50.996;4.754;2024-02-21T06:10:02;9.00;99.90
8862;DHT22;4799;50.996;4.754;2024-02-21T06:12:28;9.00;99.90
8862;DHT22;4799;50.996;4.754;2024-02-21T06:14:53;9.10;99.90
8862;DHT22;4799;50.996;4.754;2024-02-21T06:17:19;9.00;99.90
8862;DHT22;4799;50.996;4.754;2024-02-21T06:19:45;9.00;99.90
8862;DHT22;4799;50.996;4.754;2024-02-21T06:22:11;9.10;99.90
8862;DHT22;4799;50.996;4.754;2024-02-21T06:24:37;9.10;99.90
8862;DHT22;4799;50.996;4.754;2024-02-21T06:27:06;9.10;99.90
8862;DHT22;4799;50.996;4.754;2024-02-21T06:29:32;9.10;99.90
8862;DHT22;4799;50.996;4.754;2024-02-21T06:31:58;9.10;99.90
8862;DHT22;4799;50.996;4.754;2024-02-21T06:34:24;9.10;99.90
8862;DHT22;4799;50.996;4.754;2024-02-21T06:36:50;9.10;99.90
8862;DHT22;4799;50.996;4.754;2024-02-21T06:39:16;9.10;99.90
8862;DHT22;4799;50.996;4.754;2024-02-21T06:41:42;9.10;99.90
8862;DHT22;4799;50.996;4.754;2024-02-21T06:44:08;9.10;99.90
8862;DHT22;4799;50.996;4.754;2024-02-21T06:46:34;9.20;99.90
8862;DHT22;4799;50.996;4.754;2024-02-21T06:49:01;9.20;99.90
8862;DHT22;4799;50.996;4.754;2024-02-21T06:51:27;9.20;99.90
8862;DHT22;4799;50.996;4.754;2024-02-21T06:53:54;9.20;99.90
8862;DHT22;4799;50.996;4.754;2024-02-21T06:56:20;9.20;99.90
8862;DHT22;4799;50.996;4.754;2024-02-21T06:58:45;9.20;99.90
8862;DHT22;4799;50.996;4.754;2024-02-21T07:01:11;9.20;99.90
8862;DHT22;4799;50.996;4.754;2024-02-21T07:03:37;9.20;99.90
8862;DHT22;4799;50.996;4.754;2024-02-21T07:06:03;9.30;99.90
8862;DHT22;4799;50.996;4.754;2024-02-21T07:08:29;9.20;99.90
8862;DHT22;4799;50.996;4.754;2024-02-21T07:10:55;9.30;99.90
8862;DHT22;4799;50.996;4.754;2024-02-21T07:13:21;9.30;99.90
8862;DHT22;4799;50.996;4.754;2024-02-21T07:15:48;9.30;99.90
8862;DHT22;4799;50.996;4.754;2024-02-21T07:18:14;9.30;99.90
8862;DHT22;4799;50.996;4.754;2024-02-21T07:20:39;9.30;99.90
8862;DHT22;4799;50.996;4.754;2024-02-21T07:23:07;9.30;99.90
8862;DHT22;4799;50.996;4.754;2024-02-21T07:25:33;9.30;99.90
8862;DHT22;4799;50.996;4.754;2024-02-21T07:27:59;9.30;99.90
8862;DHT22;4799;50.996;4.754;2024-02-21T07:30:24;9.40;99.90
8862;DHT22;4799;50.996;4.754;2024-02-21T07:32:50;9.40;99.90
8862;DHT22;4799;50.996;4.754;2024-02-21T07:35:17;9.40;99.90
8862;DHT22;4799;50.996;4.754;2024-02-21T07:37:43;9.30;99.90
8862;DHT22;4799;50.996;4.754;2024-02-21T07:40:13;9.30;99.90
8862;DHT22;4799;50.996;4.754;2024-02-21T07:42:40;9.30;99.90
8862;DHT22;4799;50.996;4.754;2024-02-21T07:45:07;9.30;99.90
8862;DHT22;4799;50.996;4.754;2024-02-21T07:47:33;9.30;99.90
8862;DHT22;4799;50.996;4.754;2024-02-21T07:49:58;9.20;99.90
8862;DHT22;4799;50.996;4.754;2024-02-21T07:52:24;9.20;99.90
8862;DHT22;4799;50.996;4.754;2024-02-21T07:54:50;9.20;99.90
8862;DHT22;4799;50.996;4.754;2024-02-21T07:57:16;9.20;99.90
8862;DHT22;4799;50.996;4.754;2024-02-21T07:59:42;9.20;99.90
8862;DHT22;4799;50.996;4.754;2024-02-21T08:02:08;9.20;99.90
8862;DHT22;4799;50.996;4.754;2024-02-21T08:04:34;9.30;99.90
8862;DHT22;4799;50.996;4.754;2024-02-21T08:07:00;9.30;99.90
8862;DHT22;4799;50.996;4.754;2024-02-21T08:09:30;9.30;99.90
8862;DHT22;4799;50.996;4.754;2024-02-21T08:11:55;9.30;99.90
8862;DHT22;4799;50.996;4.754;2024-02-21T08:14:21;9.30;99.90
8862;DHT22;4799;50.996;4.754;2024-02-21T08:16:48;9.30;99.90
8862;DHT22;4799;50.996;4.754;2024-02-21T08:19:13;9.30;99.90
8862;DHT22;4799;50.996;4.754;2024-02-21T08:21:39;9.30;99.90
8862;DHT22;4799;50.996;4.754;2024-02-21T08:24:05;9.40;99.90
8862;DHT22;4799;50.996;4.754;2024-02-21T08:26:31;9.40;99.90
8862;DHT22;4799;50.996;4.754;2024-02-21T08:28:59;9.40;99.90
8862;DHT22;4799;50.996;4.754;2024-02-21T08:31:26;9.40;99.90
8862;DHT22;4799;50.996;4.754;2024-02-21T08:34:00;9.50;99.90
8862;DHT22;4799;50.996;4.754;2024-02-21T08:36:36;9.50;99.90
8862;DHT22;4799;50.996;4.754;2024-02-21T08:39:03;9.50;99.90
8862;DHT22;4799;50.996;4.754;2024-02-21T08:41:32;9.50;99.90
8862;DHT22;4799;50.996;4.754;2024-02-21T08:43:58;9.50;99.90
8862;DHT22;4799;50.996;4.754;2024-02-21T08:46:24;9.60;99.90
8862;DHT22;4799;50.996;4.754;2024-02-21T08:48:50;9.60;99.90
8862;DHT22;4799;50.996;4.754;2024-02-21T08:51:17;9.60;99.90
8862;DHT22;4799;50.996;4.754;2024-02-21T08:53:44;9.70;99.90
8862;DHT22;4799;50.996;4.754;2024-02-21T08:56:10;9.70;99.90
8862;DHT22;4799;50.996;4.754;2024-02-21T08:58:40;9.70;99.90
8862;DHT22;4799;50.996;4.754;2024-02-21T09:01:07;9.70;99.90
8862;DHT22;4799;50.996;4.754;2024-02-21T09:03:36;9.70;99.90
8862;DHT22;4799;50.996;4.754;2024-02-21T09:06:04;9.80;99.90
8862;DHT22;4799;50.996;4.754;2024-02-21T09:08:29;9.80;99.90
8862;DHT22;4799;50.996;4.754;2024-02-21T09:10:55;9.90;99.90
8862;DHT22;4799;50.996;4.754;2024-02-21T09:13:22;9.90;99.90
8862;DHT22;4799;50.996;4.754;2024-02-21T09:15:49;10.00;99.90
8862;DHT22;4799;50.996;4.754;2024-02-21T09:18:15;10.10;99.90
8862;DHT22;4799;50.996;4.754;2024-02-21T09:20:42;10.10;99.90
8862;DHT22;4799;50.996;4.754;2024-02-21T09:23:08;10.10;99.90
8862;DHT22;4799;50.996;4.754;2024-02-21T09:25:34;10.20;99.90
8862;DHT22;4799;50.996;4.754;2024-02-21T09:28:02;10.30;99.90
8862;DHT22;4799;50.996;4.754;2024-02-21T09:30:28;10.30;99.90
8862;DHT22;4799;50.996;4.754;2024-02-21T09:32:54;10.40;99.90
8862;DHT22;4799;50.996;4.754;2024-02-21T09:35:19;10.50;99.90
8862;DHT22;4799;50.996;4.754;2024-02-21T09:37:47;10.60;99.90
8862;DHT22;4799;50.996;4.754;2024-02-21T09:40:15;10.70;99.90
8862;DHT22;4799;50.996;4.754;2024-02-21T09:42:42;10.70;99.90
8862;DHT22;4799;50.996;4.754;2024-02-21T09:45:29;10.80;99.90
8862;DHT22;4799;50.996;4.754;2024-02-21T09:51:01;10.90;99.90
8862;DHT22;4799;50.996;4.754;2024-02-21T09:53:28;11.00;99.90
8862;DHT22;4799;50.996;4.754;2024-02-21T09:55:56;11.10;99.90
8862;DHT22;4799;50.996;4.754;2024-02-21T09:58:23;11.20;99.90
8862;DHT22;4799;50.996;4.754;2024-02-21T10:00:49;11.30;99.90
8862;DHT22;4799;50.996;4.754;2024-02-21T10:03:15;11.30;99.90
8862;DHT22;4799;50.996;4.754;2024-02-21T10:05:47;11.50;99.90
8862;DHT22;4799;50.996;4.754;2024-02-21T10:08:16;11.50;99.90
8862;DHT22;4799;50.996;4.754;2024-02-21T10:10:43;11.60;99.90
8862;DHT22;4799;50.996;4.754;2024-02-21T10:13:10;11.60;99.90
8862;DHT22;4799;50.996;4.754;2024-02-21T10:15:36;11.70;99.90
8862;DHT22;4799;50.996;4.754;2024-02-21T10:18:02;11.70;99.90
8862;DHT22;4799;50.996;4.754;2024-02-21T10:20:32;11.80;99.90
8862;DHT22;4799;50.996;4.754;2024-02-21T10:23:03;11.90;99.90
8862;DHT22;4799;50.996;4.754;2024-02-21T10:25:36;12.00;99.90
8862;DHT22;4799;50.996;4.754;2024-02-21T10:28:14;12.10;99.90
8862;DHT22;4799;50.996;4.754;2024-02-21T10:30:52;12.10;99.90
8862;DHT22;4799;50.996;4.754;2024-02-21T10:33:18;12.10;99.90
8862;DHT22;4799;50.996;4.754;2024-02-21T10:35:47;12.10;99.90
8862;DHT22;4799;50.996;4.754;2024-02-21T10:38:15;12.20;99.90
8862;DHT22;4799;50.996;4.754;2024-02-21T10:40:40;12.20;99.90
8862;DHT22;4799;50.996;4.754;2024-02-21T10:43:10;12.30;99.90
8862;DHT22;4799;50.996;4.754;2024-02-21T10:45:37;12.40;99.90
8862;DHT22;4799;50.996;4.754;2024-02-21T10:48:16;12.40;99.90
8862;DHT22;4799;50.996;4.754;2024-02-21T10:50:57;12.50;99.90
8862;DHT22;4799;50.996;4.754;2024-02-21T10:56:31;12.60;99.90
8862;DHT22;4799;50.996;4.754;2024-02-21T10:59:01;12.60;99.90
8862;DHT22;4799;50.996;4.754;2024-02-21T11:01:28;12.70;99.90
8862;DHT22;4799;50.996;4.754;2024-02-21T11:03:59;12.70;99.90
8862;DHT22;4799;50.996;4.754;2024-02-21T11:06:27;12.80;99.90
8862;DHT22;4799;50.996;4.754;2024-02-21T11:09:04;12.80;99.90
8862;DHT22;4799;50.996;4.754;2024-02-21T11:11:41;12.80;99.90
8862;DHT22;4799;50.996;4.754;2024-02-21T11:14:27;12.80;99.90
8862;DHT22;4799;50.996;4.754;2024-02-21T11:16:53;12.90;99.90
8862;DHT22;4799;50.996;4.754;2024-02-21T11:19:28;13.00;99.90
8862;DHT22;4799;50.996;4.754;2024-02-21T11:21:56;12.90;99.90
8862;DHT22;4799;50.996;4.754;2024-02-21T11:29:44;13.00;99.90
8862;DHT22;4799;50.996;4.754;2024-02-21T11:32:11;13.00;99.90
8862;DHT22;4799;50.996;4.754;2024-02-21T11:34:37;13.10;99.90
8862;DHT22;4799;50.996;4.754;2024-02-21T11:37:13;13.20;99.90
8862;DHT22;4799;50.996;4.754;2024-02-21T11:39:42;13.20;99.90
8862;DHT22;4799;50.996;4.754;2024-02-21T11:42:08;13.10;99.90
8862;DHT22;4799;50.996;4.754;2024-02-21T11:44:35;13.10;99.90
8862;DHT22;4799;50.996;4.754;2024-02-21T11:47:04;13.10;99.90
8862;DHT22;4799;50.996;4.754;2024-02-21T11:49:30;13.10;99.90
8862;DHT22;4799;50.996;4.754;2024-02-21T11:52:03;13.10;99.90
8862;DHT22;4799;50.996;4.754;2024-02-21T11:54:33;13.10;99.90
8862;DHT22;4799;50.996;4.754;2024-02-21T11:57:00;13.20;99.90
8862;DHT22;4799;50.996;4.754;2024-02-21T11:59:26;13.20;99.90
8862;DHT22;4799;50.996;4.754;2024-02-21T12:01:53;13.20;99.90
8862;DHT22;4799;50.996;4.754;2024-02-21T12:04:22;13.20;99.90
8862;DHT22;4799;50.996;4.754;2024-02-21T12:06:49;13.20;99.90
8862;DHT22;4799;50.996;4.754;2024-02-21T12:09:16;13.20;99.90
8862;DHT22;4799;50.996;4.754;2024-02-21T12:11:42;13.20;99.90
8862;DHT22;4799;50.996;4.754;2024-02-21T12:14:08;13.30;99.90
8862;DHT22;4799;50.996;4.754;2024-02-21T12:16:35;13.30;99.90
8862;DHT22;4799;50.996;4.754;2024-02-21T12:19:04;13.30;99.90
8862;DHT22;4799;50.996;4.754;2024-02-21T12:21:31;13.30;99.90
8862;DHT22;4799;50.996;4.754;2024-02-21T12:23:58;13.30;99.90
8862;DHT22;4799;50.996;4.754;2024-02-21T12:26:24;13.30;99.90
8862;DHT22;4799;50.996;4.754;2024-02-21T12:28:51;13.20;99.90
8862;DHT22;4799;50.996;4.754;2024-02-21T12:31:17;13.20;99.90
8862;DHT22;4799;50.996;4.754;2024-02-21T12:33:43;13.20;99.90
8862;DHT22;4799;50.996;4.754;2024-02-21T12:36:09;13.10;99.90
8862;DHT22;4799;50.996;4.754;2024-02-21T12:38:35;13.00;99.90
8862;DHT22;4799;50.996;4.754;2024-02-21T12:41:02;13.00;99.90
8862;DHT22;4799;50.996;4.754;2024-02-21T12:43:27;13.00;99.90
8862;DHT22;4799;50.996;4.754;2024-02-21T12:45:53;13.00;99.90
8862;DHT22;4799;50.996;4.754;2024-02-21T12:48:19;12.90;99.90
8862;DHT22;4799;50.996;4.754;2024-02-21T12:50:49;12.90;99.90
8862;DHT22;4799;50.996;4.754;2024-02-21T12:53:19;12.90;99.90
8862;DHT22;4799;50.996;4.754;2024-02-21T12:55:47;12.90;99.90
8862;DHT22;4799;50.996;4.754;2024-02-21T12:58:14;12.90;99.90
8862;DHT22;4799;50.996;4.754;2024-02-21T13:00:40;12.90;99.90
8862;DHT22;4799;50.996;4.754;2024-02-21T13:03:06;12.80;99.90
8862;DHT22;4799;50.996;4.754;2024-02-21T13:05:32;12.80;99.90
8862;DHT22;4799;50.996;4.754;2024-02-21T13:07:58;12.80;99.90
8862;DHT22;4799;50.996;4.754;2024-02-21T13:10:24;12.80;99.90
8862;DHT22;4799;50.996;4.754;2024-02-21T13:12:50;12.80;99.90
8862;DHT22;4799;50.996;4.754;2024-02-21T13:15:16;12.80;99.90
8862;DHT22;4799;50.996;4.754;2024-02-21T13:17:46;12.80;99.90
8862;DHT22;4799;50.996;4.754;2024-02-21T13:20:13;12.90;99.90
8862;DHT22;4799;50.996;4.754;2024-02-21T13:22:39;12.90;99.90
8862;DHT22;4799;50.996;4.754;2024-02-21T13:25:05;13.00;99.90
8862;DHT22;4799;50.996;4.754;2024-02-21T13:27:33;13.00;99.90
8862;DHT22;4799;50.996;4.754;2024-02-21T13:29:59;13.10;99.90
8862;DHT22;4799;50.996;4.754;2024-02-21T13:32:28;13.10;99.90
8862;DHT22;4799;50.996;4.754;2024-02-21T13:34:54;13.10;99.90
8862;DHT22;4799;50.996;4.754;2024-02-21T13:37:19;13.20;99.90
8862;DHT22;4799;50.996;4.754;2024-02-21T13:39:47;13.20;99.90
8862;DHT22;4799;50.996;4.754;2024-02-21T13:42:13;13.20;99.90
8862;DHT22;4799;50.996;4.754;2024-02-21T13:44:38;13.10;99.90
8862;DHT22;4799;50.996;4.754;2024-02-21T13:47:04;13.10;99.90
8862;DHT22;4799;50.996;4.754;2024-02-21T13:49:30;13.00;99.90
8862;DHT22;4799;50.996;4.754;2024-02-21T13:51:56;13.00;99.90
8862;DHT22;4799;50.996;4.754;2024-02-21T13:54:22;12.90;99.90
8862;DHT22;4799;50.996;4.754;2024-02-21T13:56:47;12.90;99.90
8862;DHT22;4799;50.996;4.754;2024-02-21T13:59:13;12.80;99.90
8862;DHT22;4799;50.996;4.754;2024-02-21T14:01:39;12.80;99.90
8862;DHT22;4799;50.996;4.754;2024-02-21T14:04:05;12.70;99.90
8862;DHT22;4799;50.996;4.754;2024-02-21T14:06:30;12.60;99.90
8862;DHT22;4799;50.996;4.754;2024-02-21T14:08:56;12.50;99.90
8862;DHT22;4799;50.996;4.754;2024-02-21T14:11:22;12.40;99.90
8862;DHT22;4799;50.996;4.754;2024-02-21T14:13:48;12.40;99.90
8862;DHT22;4799;50.996;4.754;2024-02-21T14:16:14;12.40;99.90
8862;DHT22;4799;50.996;4.754;2024-02-21T14:18:40;12.20;99.90
8862;DHT22;4799;50.996;4.754;2024-02-21T14:21:10;12.10;99.90
8862;DHT22;4799;50.996;4.754;2024-02-21T14:23:37;12.10;99.90
8862;DHT22;4799;50.996;4.754;2024-02-21T14:26:04;12.00;99.90
8862;DHT22;4799;50.996;4.754;2024-02-21T14:28:30;11.90;99.90
8862;DHT22;4799;50.996;4.754;2024-02-21T14:30:55;11.80;99.90
8862;DHT22;4799;50.996;4.754;2024-02-21T14:33:31;11.70;99.90
8862;DHT22;4799;50.996;4.754;2024-02-21T14:35:57;11.60;99.90
8862;DHT22;4799;50.996;4.754;2024-02-21T14:38:23;11.50;99.90
8862;DHT22;4799;50.996;4.754;2024-02-21T14:40:49;11.40;99.90
8862;DHT22;4799;50.996;4.754;2024-02-21T14:43:14;11.40;99.90
8862;DHT22;4799;50.996;4.754;2024-02-21T14:45:40;11.30;99.90
8862;DHT22;4799;50.996;4.754;2024-02-21T14:48:07;11.20;99.90
8862;DHT22;4799;50.996;4.754;2024-02-21T14:50:33;11.20;99.90
8862;DHT22;4799;50.996;4.754;2024-02-21T14:52:58;11.10;99.90
8862;DHT22;4799;50.996;4.754;2024-02-21T14:55:24;11.00;99.90
8862;DHT22;4799;50.996;4.754;2024-02-21T14:57:50;10.90;99.90
8862;DHT22;4799;50.996;4.754;2024-02-21T15:00:16;10.90;99.90
8862;DHT22;4799;50.996;4.754;2024-02-21T15:02:42;10.90;99.90
8862;DHT22;4799;50.996;4.754;2024-02-21T15:05:09;10.80;99.90
8862;DHT22;4799;50.996;4.754;2024-02-21T15:07:35;10.80;99.90
8862;DHT22;4799;50.996;4.754;2024-02-21T15:10:01;10.70;99.90
8862;DHT22;4799;50.996;4.754;2024-02-21T15:12:28;10.70;99.90
8862;DHT22;4799;50.996;4.754;2024-02-21T15:14:54;10.60;99.90
8862;DHT22;4799;50.996;4.754;2024-02-21T15:17:19;10.60;99.90
8862;DHT22;4799;50.996;4.754;2024-02-21T15:19:45;10.60;99.90
8862;DHT22;4799;50.996;4.754;2024-02-21T15:22:13;10.50;99.90
8862;DHT22;4799;50.996;4.754;2024-02-21T15:24:39;10.50;99.90
8862;DHT22;4799;50.996;4.754;2024-02-21T15:27:06;10.40;99.90
8862;DHT22;4799;50.996;4.754;2024-02-21T15:29:32;10.40;99.90
8862;DHT22;4799;50.996;4.754;2024-02-21T15:31:57;10.40;99.90
8862;DHT22;4799;50.996;4.754;2024-02-21T15:34:23;10.40;99.90
8862;DHT22;4799;50.996;4.754;2024-02-21T15:36:49;10.30;99.90
8862;DHT22;4799;50.996;4.754;2024-02-21T15:39:15;10.30;99.90
8862;DHT22;4799;50.996;4.754;2024-02-21T15:41:40;10.30;99.90
8862;DHT22;4799;50.996;4.754;2024-02-21T15:44:06;10.20;99.90
8862;DHT22;4799;50.996;4.754;2024-02-21T15:46:32;10.20;99.90
8862;DHT22;4799;50.996;4.754;2024-02-21T15:49:01;10.20;99.90
8862;DHT22;4799;50.996;4.754;2024-02-21T15:51:27;10.20;99.90
8862;DHT22;4799;50.996;4.754;2024-02-21T15:53:53;10.10;99.90
8862;DHT22;4799;50.996;4.754;2024-02-21T15:56:18;10.10;99.90
8862;DHT22;4799;50.996;4.754;2024-02-21T15:58:45;10.10;99.90
8862;DHT22;4799;50.996;4.754;2024-02-21T16:01:11;10.00;99.90
8862;DHT22;4799;50.996;4.754;2024-02-21T16:03:37;10.00;99.90
8862;DHT22;4799;50.996;4.754;2024-02-21T16:06:04;10.00;99.90
8862;DHT22;4799;50.996;4.754;2024-02-21T16:08:29;10.00;99.90
8862;DHT22;4799;50.996;4.754;2024-02-21T16:10:55;9.90;99.90
8862;DHT22;4799;50.996;4.754;2024-02-21T16:13:21;9.90;99.90
8862;DHT22;4799;50.996;4.754;2024-02-21T16:15:47;9.90;99.90
8862;DHT22;4799;50.996;4.754;2024-02-21T16:18:14;9.90;99.90
8862;DHT22;4799;50.996;4.754;2024-02-21T16:20:46;9.80;99.90